createdAt,value
2022-12-04T00:01:30.608Z,22.73
2022-12-04T00:03:58.951Z,23.49
2022-12-04T00:06:25.950Z,23.93
2022-12-04T00:08:52.757Z,24.12
2022-12-04T00:11:24.371Z,25.18
2022-12-04T00:13:51.254Z,25.15
2022-12-04T00:16:20.920Z,25.19
2022-12-04T00:18:48.979Z,24.81
2022-12-04T00:21:16.060Z,24.54
2022-12-04T00:23:43.008Z,24.46
2022-12-04T00:26:27.363Z,24.50
2022-12-04T00:28:54.568Z,24.20
2022-12-04T00:31:24.057Z,24.17
2022-12-04T00:33:50.824Z,24.62
2022-12-04T00:36:19.400Z,24.81
2022-12-04T00:38:46.145Z,24.38
2022-12-04T00:41:13.918Z,23.94
2022-12-04T00:43:40.779Z,24.10
2022-12-04T00:46:08.136Z,23.01
2022-12-04T00:48:35.071Z,22.82
2022-12-04T00:51:04.923Z,22.65
2022-12-04T00:53:32.927Z,22.88
2022-12-04T00:55:59.715Z,22.19
2022-12-04T00:58:27.258Z,22.07
2022-12-04T01:01:16.557Z,22.28
2022-12-04T01:03:43.860Z,21.54
2022-12-04T01:06:35.952Z,21.43
2022-12-04T01:09:04.952Z,22.21
2022-12-04T01:11:31.859Z,23.18
2022-12-04T01:14:00.307Z,23.20
2022-12-04T01:16:34.166Z,23.61
2022-12-04T01:19:01.391Z,23.81
2022-12-04T01:21:28.241Z,22.61
2022-12-04T01:23:55.240Z,22.55
2022-12-04T01:26:22.032Z,23.18
2022-12-04T01:28:48.877Z,22.21
2022-12-04T01:31:17.653Z,23.65
2022-12-04T01:33:44.994Z,23.00
2022-12-04T01:36:18.752Z,23.78
2022-12-04T01:38:45.642Z,23.64
2022-12-04T01:41:12.911Z,23.71
2022-12-04T01:43:40.268Z,23.20
2022-12-04T01:46:07.305Z,22.69
2022-12-04T01:48:52.838Z,23.05
2022-12-04T01:51:24.890Z,22.95
2022-12-04T01:54:02.861Z,22.61
2022-12-04T01:56:49.165Z,23.75
2022-12-04T01:59:16.993Z,23.38
2022-12-04T02:01:50.833Z,23.92
2022-12-04T02:04:17.725Z,23.80
2022-12-04T02:06:44.640Z,23.53
2022-12-04T02:09:11.439Z,23.16
2022-12-04T02:11:44.072Z,23.32
2022-12-04T02:14:34.892Z,23.24
2022-12-04T02:17:22.883Z,23.45
2022-12-04T02:20:08.387Z,22.52
2022-12-04T02:23:03.862Z,22.48
2022-12-04T02:26:00.918Z,21.51
2022-12-04T02:29:22.256Z,21.72
2022-12-04T02:31:58.064Z,21.93
2022-12-04T02:35:00.252Z,21.88
2022-12-04T02:37:33.520Z,21.30
2022-12-04T02:40:30.633Z,21.17
2022-12-04T02:43:03.905Z,21.46
2022-12-04T02:45:33.651Z,21.76
2022-12-04T02:48:01.348Z,22.07
2022-12-04T02:50:28.586Z,22.01
2022-12-04T02:52:59.450Z,22.03
2022-12-04T02:55:35.342Z,22.72
2022-12-04T02:58:06.246Z,22.45
2022-12-04T03:00:33.016Z,22.46
2022-12-04T03:03:02.031Z,23.34
2022-12-04T03:05:38.178Z,22.93
2022-12-04T03:08:07.607Z,24.08
2022-12-04T03:10:43.957Z,24.50
2022-12-04T03:13:16.471Z,24.36
2022-12-04T03:15:57.240Z,24.35
2022-12-04T03:18:29.490Z,24.31
2022-12-04T03:21:02.765Z,24.35
2022-12-04T03:23:35.576Z,25.17
2022-12-04T03:26:21.248Z,25.01
2022-12-04T03:28:55.326Z,24.61
2022-12-04T03:31:36.212Z,24.70
2022-12-04T03:34:03.597Z,25.24
2022-12-04T03:36:39.640Z,25.31
2022-12-04T03:39:16.018Z,26.34
2022-12-04T03:42:03.984Z,26.41
2022-12-04T03:44:46.625Z,26.36
2022-12-04T03:47:18.948Z,25.55
2022-12-04T03:50:01.170Z,25.65
2022-12-04T03:52:44.158Z,26.14
2022-12-04T03:55:24.534Z,26.48
2022-12-04T03:57:51.414Z,26.11
2022-12-04T04:00:20.243Z,26.70
2022-12-04T04:02:53.063Z,26.40
2022-12-04T04:05:19.949Z,27.18
2022-12-04T04:07:54.986Z,27.20
2022-12-04T04:10:24.345Z,26.66
2022-12-04T04:13:13.390Z,26.39
2022-12-04T04:16:00.456Z,26.11
2022-12-04T04:18:27.858Z,26.09
2022-12-04T04:20:57.659Z,26.08
2022-12-04T04:23:24.738Z,26.36
2022-12-04T04:25:52.602Z,25.41
2022-12-04T04:28:29.488Z,25.70
2022-12-04T04:30:57.600Z,26.37
2022-12-04T04:33:25.464Z,26.81
2022-12-04T04:36:04.338Z,26.75
2022-12-04T04:38:45.549Z,26.33
2022-12-04T04:41:19.529Z,26.50
2022-12-04T04:44:10.124Z,26.52
2022-12-04T04:46:41.310Z,25.89
2022-12-04T04:49:09.156Z,25.67
2022-12-04T04:51:36.328Z,25.80
2022-12-04T04:54:06.317Z,25.70
2022-12-04T04:56:41.521Z,25.73
2022-12-04T04:59:08.241Z,25.03
2022-12-04T05:01:35.323Z,25.48
2022-12-04T05:04:03.877Z,26.16
2022-12-04T05:06:31.172Z,24.73
2022-12-04T05:08:58.299Z,25.00
2022-12-04T05:11:25.083Z,25.33
2022-12-04T05:13:52.061Z,25.42
2022-12-04T05:16:19.099Z,25.11
2022-12-04T05:18:46.883Z,25.67
2022-12-04T05:21:13.627Z,26.16
2022-12-04T05:23:40.728Z,26.47
2022-12-04T05:26:08.388Z,25.85
2022-12-04T05:28:35.970Z,25.79
2022-12-04T05:31:03.477Z,26.84
2022-12-04T05:33:30.943Z,26.39
2022-12-04T05:36:02.192Z,26.45
2022-12-04T05:38:29.111Z,25.84
2022-12-04T05:40:58.261Z,26.21
2022-12-04T05:43:25.202Z,26.01
2022-12-04T05:45:52.290Z,26.16
2022-12-04T05:48:19.386Z,27.13
2022-12-04T05:50:46.322Z,26.44
2022-12-04T05:53:14.091Z,25.48
2022-12-04T05:55:41.001Z,25.78
2022-12-04T05:58:08.928Z,25.39
2022-12-04T06:00:36.160Z,24.95
2022-12-04T06:03:03.065Z,25.72
2022-12-04T06:05:30.032Z,25.15
2022-12-04T06:07:56.758Z,26.12
2022-12-04T06:10:23.786Z,28.36
2022-12-04T06:12:50.523Z,25.74
2022-12-04T06:15:18.402Z,26.79
2022-12-04T06:17:46.198Z,26.02
2022-12-04T06:20:14.254Z,26.37
2022-12-04T06:22:41.083Z,26.82
2022-12-04T06:25:08.524Z,27.04
2022-12-04T06:27:35.337Z,27.98
2022-12-04T06:30:02.673Z,28.96
2022-12-04T06:32:32.380Z,28.81
2022-12-04T06:34:59.886Z,28.28
2022-12-04T06:37:27.314Z,29.52
2022-12-04T06:39:55.774Z,29.24
2022-12-04T06:42:22.719Z,29.20
2022-12-04T06:44:49.445Z,28.57
2022-12-04T06:47:16.173Z,29.41
2022-12-04T06:49:43.021Z,28.92
2022-12-04T06:52:10.027Z,29.16
2022-12-04T06:54:36.799Z,29.35
2022-12-04T06:57:03.538Z,30.62
2022-12-04T06:59:31.746Z,29.63
2022-12-04T07:02:36.653Z,29.87
2022-12-04T07:05:05.542Z,30.31
2022-12-04T07:07:32.759Z,29.35
2022-12-04T07:09:59.457Z,30.17
2022-12-04T07:12:26.219Z,30.28
2022-12-04T07:14:55.749Z,29.40
2022-12-04T07:17:22.551Z,29.55
2022-12-04T07:19:50.357Z,30.30
2022-12-04T07:22:19.358Z,30.77
2022-12-04T07:24:46.145Z,30.32
2022-12-04T07:27:12.967Z,30.58
2022-12-04T07:29:40.088Z,30.59
2022-12-04T07:32:07.284Z,30.52
2022-12-04T07:34:34.496Z,30.83
2022-12-04T07:37:06.507Z,31.13
2022-12-04T07:39:33.646Z,29.97
2022-12-04T07:42:03.567Z,29.92
2022-12-04T07:44:34.374Z,30.62
2022-12-04T07:47:01.232Z,29.97
2022-12-04T07:49:28.185Z,30.22
2022-12-04T07:51:56.769Z,30.24
2022-12-04T07:54:23.875Z,30.57
2022-12-04T07:56:51.310Z,31.35
2022-12-04T07:59:18.313Z,31.52
2022-12-04T08:01:45.275Z,32.26
2022-12-04T08:04:12.130Z,31.57
2022-12-04T08:06:38.989Z,31.22
2022-12-04T08:09:09.773Z,32.08
2022-12-04T08:11:37.304Z,31.02
2022-12-04T08:14:11.135Z,30.80
2022-12-04T08:16:37.930Z,31.16
2022-12-04T08:19:05.180Z,30.65
2022-12-04T08:21:32.051Z,29.34
2022-12-04T08:23:59.411Z,30.55
2022-12-04T08:26:28.983Z,29.93
2022-12-04T08:28:56.248Z,29.00
2022-12-04T08:31:25.345Z,29.37
2022-12-04T08:33:57.522Z,28.31
2022-12-04T08:36:24.898Z,29.28
2022-12-04T08:38:52.022Z,28.77
2022-12-04T08:41:20.121Z,29.28
2022-12-04T08:43:47.008Z,29.35
2022-12-04T08:46:15.121Z,29.87
2022-12-04T08:48:42.410Z,29.54
2022-12-04T08:51:16.304Z,30.95
2022-12-04T08:53:44.872Z,29.75
2022-12-04T08:56:12.051Z,31.60
2022-12-04T08:58:39.224Z,29.25
2022-12-04T09:01:08.490Z,28.40
2022-12-04T09:03:35.770Z,27.69
2022-12-04T09:06:03.936Z,27.49
2022-12-04T09:08:31.537Z,29.35
2022-12-04T09:11:06.085Z,28.49
2022-12-04T09:13:35.650Z,28.55
2022-12-04T09:16:12.023Z,28.23
2022-12-04T09:18:39.420Z,28.21
2022-12-04T09:21:08.021Z,28.88
2022-12-04T09:23:38.221Z,28.36
2022-12-04T09:26:31.707Z,30.24
2022-12-04T09:29:02.310Z,28.44
2022-12-04T09:31:30.400Z,28.44
2022-12-04T09:34:00.833Z,28.39
2022-12-04T09:36:28.032Z,28.80
2022-12-04T09:38:55.873Z,29.00
2022-12-04T09:41:53.622Z,30.37
2022-12-04T09:44:41.949Z,30.19
2022-12-04T09:47:28.984Z,28.62
2022-12-04T09:49:56.761Z,30.61
2022-12-04T09:52:58.667Z,32.53
2022-12-04T09:55:43.771Z,30.78
2022-12-04T09:58:15.550Z,30.79
2022-12-04T10:00:43.471Z,30.79
2022-12-04T10:03:24.831Z,30.31
2022-12-04T10:06:02.585Z,30.09
2022-12-04T10:08:37.245Z,30.09
2022-12-04T10:11:56.665Z,30.84
2022-12-04T10:14:47.409Z,29.64
2022-12-04T10:17:51.717Z,27.31
2022-12-04T10:20:52.028Z,25.88
2022-12-04T10:24:09.767Z,25.44
2022-12-04T10:26:39.825Z,25.47
2022-12-04T10:29:33.860Z,24.70
2022-12-04T10:32:24.542Z,26.68
2022-12-04T10:34:54.445Z,27.51
2022-12-04T10:37:27.310Z,26.95
2022-12-04T10:39:57.045Z,27.04
2022-12-04T10:42:48.398Z,27.81
2022-12-04T10:45:15.855Z,26.74
2022-12-04T10:48:13.585Z,25.23
2022-12-04T10:50:40.585Z,24.60
2022-12-04T10:53:13.434Z,25.54
2022-12-04T10:55:40.925Z,24.32
2022-12-04T10:58:22.808Z,23.93
2022-12-04T11:01:11.575Z,23.14
2022-12-04T11:03:41.290Z,22.76
2022-12-04T11:06:10.456Z,23.60
2022-12-04T11:08:49.569Z,23.63
2022-12-04T11:11:22.580Z,23.25
2022-12-04T11:14:15.846Z,23.08
2022-12-04T11:16:44.950Z,23.12
2022-12-04T11:19:29.630Z,22.38
2022-12-04T11:21:58.998Z,23.50
2022-12-04T11:24:36.574Z,23.15
2022-12-04T11:27:31.013Z,23.89
2022-12-04T11:30:16.040Z,24.17
2022-12-04T11:32:44.452Z,24.48
2022-12-04T11:35:28.542Z,24.33
2022-12-04T11:38:29.413Z,24.22
2022-12-04T11:40:57.465Z,24.74
2022-12-04T11:43:28.750Z,24.71
2022-12-04T11:46:07.009Z,25.48
2022-12-04T11:48:44.310Z,26.05
2022-12-04T11:54:48.150Z,26.62
2022-12-04T11:57:58.113Z,25.01
2022-12-04T12:00:31.109Z,25.33
2022-12-04T12:03:12.978Z,24.50
2022-12-04T12:06:05.226Z,24.99
2022-12-04T12:09:36.577Z,26.22
2022-12-04T12:12:49.604Z,26.08
2022-12-04T12:15:43.166Z,23.88
2022-12-04T12:18:56.116Z,24.25
2022-12-04T12:22:03.602Z,25.92
2022-12-04T12:24:58.682Z,24.71
2022-12-04T12:28:04.950Z,26.37
2022-12-04T12:30:57.364Z,27.33
2022-12-04T12:33:35.472Z,26.02
2022-12-04T12:36:09.927Z,27.86
2022-12-04T12:38:48.784Z,26.15
2022-12-04T12:41:28.077Z,27.51
2022-12-04T12:44:36.356Z,26.60
2022-12-04T12:47:17.797Z,24.99
2022-12-04T12:50:36.958Z,26.32
2022-12-04T12:53:16.405Z,26.36
2022-12-04T12:55:54.307Z,26.00
2022-12-04T12:58:48.884Z,27.36
2022-12-04T13:01:17.371Z,28.19
2022-12-04T13:04:05.980Z,28.52
2022-12-04T13:06:42.121Z,26.68
2022-12-04T13:09:33.550Z,26.79
2022-12-04T13:12:11.523Z,26.27
2022-12-04T13:14:38.390Z,25.07
2022-12-04T13:17:21.672Z,24.75
2022-12-04T13:19:57.761Z,23.16
2022-12-04T13:22:56.186Z,23.45
2022-12-04T13:26:05.724Z,23.58
2022-12-04T13:28:47.564Z,23.73
2022-12-04T13:31:38.521Z,23.78
2022-12-04T13:34:23.624Z,29.13
2022-12-04T13:37:25.638Z,24.92
2022-12-04T13:40:10.377Z,25.31
2022-12-04T13:43:12.865Z,25.71
2022-12-04T13:45:44.411Z,23.59
2022-12-04T13:48:12.245Z,24.74
2022-12-04T13:50:39.656Z,23.95
2022-12-04T13:53:30.914Z,23.31
2022-12-04T13:56:00.864Z,23.89
2022-12-04T13:58:33.444Z,23.44
2022-12-04T14:01:08.917Z,23.67
2022-12-04T14:03:49.458Z,23.10
2022-12-04T14:06:37.000Z,22.88
2022-12-04T14:09:08.964Z,22.50
2022-12-04T14:11:50.852Z,24.14
2022-12-04T14:14:44.431Z,24.69
2022-12-04T14:17:27.836Z,23.45
2022-12-04T14:20:07.816Z,23.81
2022-12-04T14:22:39.839Z,25.07
2022-12-04T14:25:24.481Z,27.35
2022-12-04T14:27:52.744Z,25.06
2022-12-04T14:30:36.694Z,25.48
2022-12-04T14:33:20.940Z,24.97
2022-12-04T14:35:56.208Z,26.43
2022-12-04T14:38:24.320Z,25.80
2022-12-04T14:40:54.787Z,26.60
2022-12-04T14:43:26.737Z,26.34
2022-12-04T14:46:33.407Z,25.64
2022-12-04T14:49:30.911Z,25.43
2022-12-04T14:52:25.229Z,25.26
2022-12-04T14:55:15.825Z,24.37
2022-12-04T14:58:05.397Z,24.72
2022-12-04T15:00:32.378Z,25.02
2022-12-04T15:03:00.654Z,24.57
2022-12-04T15:05:31.018Z,25.76
2022-12-04T15:08:00.162Z,24.92
2022-12-04T15:10:31.773Z,25.28
2022-12-04T15:13:01.579Z,25.94
2022-12-04T15:15:29.476Z,26.13
2022-12-04T15:18:16.615Z,26.35
2022-12-04T15:21:12.517Z,26.29
2022-12-04T15:23:45.327Z,25.17
2022-12-04T15:26:49.219Z,25.17
2022-12-04T15:29:25.414Z,25.82
2022-12-04T15:31:54.632Z,25.66
2022-12-04T15:34:21.767Z,27.01
2022-12-04T15:37:08.687Z,25.84
2022-12-04T15:39:59.556Z,26.29
2022-12-04T15:42:29.407Z,26.12
2022-12-04T15:44:57.744Z,25.41
2022-12-04T15:47:25.508Z,26.07
2022-12-04T15:49:52.345Z,25.05
2022-12-04T15:52:20.817Z,25.50
2022-12-04T15:54:59.726Z,25.33
2022-12-04T15:57:33.465Z,24.87
2022-12-04T16:00:01.051Z,25.01
2022-12-04T16:02:42.059Z,24.63
2022-12-04T16:05:22.161Z,25.98
2022-12-04T16:08:17.465Z,42.45
2022-12-04T16:10:45.022Z,29.08
2022-12-04T16:13:26.987Z,48.79
2022-12-04T16:15:56.988Z,27.59
2022-12-04T16:18:24.664Z,29.89
2022-12-04T16:20:54.592Z,32.64
2022-12-04T16:23:23.603Z,61.63
2022-12-04T16:25:53.551Z,60.19
2022-12-04T16:28:20.976Z,48.14
2022-12-04T16:30:47.794Z,31.88
2022-12-04T16:33:15.138Z,57.26
2022-12-04T16:35:44.670Z,83.44
2022-12-04T16:38:15.676Z,49.93
2022-12-04T16:40:43.900Z,34.93
2022-12-04T16:43:17.943Z,31.39
2022-12-04T16:45:46.948Z,30.08
2022-12-04T16:48:22.946Z,26.81
2022-12-04T16:50:51.011Z,26.62
2022-12-04T16:53:18.874Z,26.21
2022-12-04T16:55:48.648Z,26.27
2022-12-04T16:58:16.634Z,26.04
2022-12-04T17:00:44.515Z,26.58
2022-12-04T17:03:28.466Z,25.70
2022-12-04T17:05:55.385Z,25.46
2022-12-04T17:08:22.495Z,25.32
2022-12-04T17:10:49.608Z,25.38
2022-12-04T17:13:20.523Z,25.37
2022-12-04T17:15:53.458Z,25.86
2022-12-04T17:18:21.468Z,26.08
2022-12-04T17:20:48.862Z,29.04
2022-12-04T17:23:18.725Z,29.29
2022-12-04T17:25:46.682Z,27.39
2022-12-04T17:28:13.725Z,27.55
2022-12-04T17:30:47.240Z,28.74
2022-12-04T17:33:14.418Z,27.69
2022-12-04T17:35:44.088Z,27.72
2022-12-04T17:38:13.727Z,27.44
2022-12-04T17:40:42.738Z,27.65
2022-12-04T17:43:09.724Z,28.48
2022-12-04T17:45:40.165Z,29.04
2022-12-04T17:48:09.994Z,28.55
2022-12-04T17:50:39.947Z,29.43
2022-12-04T17:53:06.987Z,28.76
2022-12-04T17:55:34.246Z,30.61
2022-12-04T17:58:01.384Z,30.19
2022-12-04T18:00:31.251Z,30.29
2022-12-04T18:03:04.198Z,80.28
2022-12-04T18:05:34.121Z,39.25
2022-12-04T18:08:03.856Z,32.20
2022-12-04T18:10:33.151Z,33.54
2022-12-04T18:13:04.172Z,30.61
2022-12-04T18:18:43.517Z,31.82
2022-12-04T18:21:13.294Z,61.01
2022-12-04T18:23:46.145Z,32.48
2022-12-04T18:26:17.891Z,60.04
2022-12-04T18:28:45.084Z,34.54
2022-12-04T18:31:18.431Z,35.06
2022-12-04T18:33:48.436Z,40.86
2022-12-04T18:36:18.650Z,37.16
2022-12-04T18:38:46.517Z,31.66
2022-12-04T18:41:19.134Z,30.28
2022-12-04T18:43:46.161Z,30.80
2022-12-04T18:46:19.273Z,34.74
2022-12-04T18:49:01.406Z,31.21
2022-12-04T18:51:36.700Z,29.86
2022-12-04T18:54:09.552Z,29.99
2022-12-04T18:56:52.098Z,30.20
2022-12-04T18:59:25.947Z,33.26
2022-12-04T19:01:57.635Z,37.91
2022-12-04T19:04:25.653Z,44.62
2022-12-04T19:06:54.684Z,31.47
2022-12-04T19:12:15.197Z,30.80
2022-12-04T19:14:47.932Z,44.14
2022-12-04T19:17:16.514Z,38.37
2022-12-04T19:19:45.417Z,45.22
2022-12-04T19:22:25.430Z,35.46
2022-12-04T19:24:55.138Z,89.41
2022-12-04T19:27:27.963Z,34.47
2022-12-04T19:29:55.654Z,30.20
2022-12-04T19:32:22.649Z,39.13
2022-12-04T19:34:52.301Z,34.40
2022-12-04T19:37:22.353Z,33.02
2022-12-04T19:39:52.245Z,29.89
2022-12-04T19:42:19.735Z,30.51
2022-12-04T19:44:48.772Z,29.52
2022-12-04T19:47:19.427Z,28.27
2022-12-04T19:49:48.398Z,28.42
2022-12-04T19:52:15.263Z,29.16
2022-12-04T19:54:42.332Z,28.81
2022-12-04T19:57:09.740Z,27.57
2022-12-04T19:59:40.567Z,28.89
2022-12-04T20:02:11.305Z,28.26
2022-12-04T20:04:38.800Z,29.85
2022-12-04T20:07:06.162Z,32.20
2022-12-04T20:09:33.308Z,29.01
2022-12-04T20:12:00.564Z,28.90
2022-12-04T20:14:28.588Z,28.83
2022-12-04T20:16:55.943Z,28.42
2022-12-04T20:19:23.618Z,33.91
2022-12-04T20:21:54.806Z,31.40
2022-12-04T20:24:25.246Z,29.34
2022-12-04T20:26:52.458Z,28.86
2022-12-04T20:29:19.863Z,28.11
2022-12-04T20:31:49.539Z,28.54
2022-12-04T20:34:25.321Z,28.90
2022-12-04T20:36:52.237Z,27.68
2022-12-04T20:39:20.284Z,28.71
2022-12-04T20:41:56.853Z,28.10
2022-12-04T20:44:26.394Z,28.82
2022-12-04T20:46:56.424Z,28.69
2022-12-04T20:49:50.575Z,27.70
2022-12-04T20:52:20.145Z,28.73
2022-12-04T20:54:47.531Z,28.03
2022-12-04T20:57:14.565Z,28.76
2022-12-04T20:59:41.634Z,29.40
2022-12-04T21:02:11.901Z,29.94
2022-12-04T21:04:39.075Z,30.34
2022-12-04T21:07:11.838Z,30.98
2022-12-04T21:09:39.184Z,30.54
2022-12-04T21:12:06.304Z,30.51
2022-12-04T21:14:34.370Z,30.69
2022-12-04T21:17:33.304Z,31.49
2022-12-04T21:20:04.300Z,32.55
2022-12-04T21:22:38.150Z,32.88
2022-12-04T21:25:05.552Z,32.08
2022-12-04T21:27:32.570Z,32.46
2022-12-04T21:29:59.677Z,31.24
2022-12-04T21:32:27.473Z,29.83
2022-12-04T21:34:54.523Z,27.46
2022-12-04T21:37:23.331Z,25.15
2022-12-04T21:39:50.293Z,22.81
2022-12-04T21:42:17.398Z,19.85
2022-12-04T21:44:44.524Z,18.54
2022-12-04T21:47:12.547Z,18.90
2022-12-04T21:49:45.548Z,15.70
2022-12-04T21:52:12.633Z,18.36
2022-12-04T21:54:39.612Z,17.87
2022-12-04T21:57:07.843Z,16.82
2022-12-04T21:59:35.577Z,15.68
2022-12-04T22:02:02.754Z,14.96
2022-12-04T22:04:29.902Z,13.99
2022-12-04T22:06:57.078Z,11.61
2022-12-04T22:09:27.564Z,11.95
2022-12-04T22:11:55.466Z,10.72
2022-12-04T22:14:22.285Z,10.41
2022-12-04T22:16:52.796Z,9.87
2022-12-04T22:19:19.820Z,9.49
2022-12-04T22:22:09.586Z,9.60
2022-12-04T22:24:36.718Z,8.94
2022-12-04T22:27:03.889Z,8.79
2022-12-04T22:32:17.943Z,8.33
2022-12-04T22:34:47.447Z,7.67
2022-12-04T22:37:14.491Z,8.61
2022-12-04T22:39:42.965Z,9.03
2022-12-04T22:42:14.668Z,8.33
2022-12-04T22:44:46.521Z,8.70
2022-12-04T22:47:16.145Z,8.10
2022-12-04T22:49:43.250Z,7.31
2022-12-04T22:52:12.293Z,7.33
2022-12-04T22:54:39.068Z,7.69
2022-12-04T22:57:06.588Z,7.81
2022-12-04T22:59:33.639Z,7.58
2022-12-04T23:02:00.769Z,8.35
2022-12-04T23:04:28.844Z,8.78
2022-12-04T23:06:57.233Z,9.05
2022-12-04T23:09:24.283Z,8.93
2022-12-04T23:11:54.452Z,8.88
2022-12-04T23:14:22.363Z,8.86
2022-12-04T23:16:49.195Z,9.01
2022-12-04T23:19:17.396Z,9.44
2022-12-04T23:21:55.139Z,9.93
2022-12-04T23:24:23.932Z,9.99
2022-12-04T23:26:52.509Z,10.26
2022-12-04T23:29:44.973Z,9.77
2022-12-04T23:32:06.817Z,10.62
2022-12-04T23:34:34.819Z,10.16
2022-12-04T23:37:01.513Z,10.05
2022-12-04T23:39:29.573Z,10.05
2022-12-04T23:41:57.329Z,10.32
2022-12-04T23:44:25.651Z,9.87
2022-12-04T23:46:52.825Z,10.21
2022-12-04T23:49:19.939Z,10.25
2022-12-04T23:51:47.241Z,10.21
2022-12-04T23:54:14.772Z,10.43
2022-12-04T23:56:41.809Z,9.80
2022-12-04T23:59:09.774Z,10.01
